sensor_id;sensor_type;location;lat;lon;timestamp;pressure;altitude;pressure_sealevel;temperature;humidity
74905;BME280;63465;50.862;6.220;2023-02-02T00:01:09;100506.75;;;7.37;79.87
74905;BME280;63465;50.862;6.220;2023-02-02T00:03:36;100504.00;;;7.42;79.98
74905;BME280;63465;50.862;6.220;2023-02-02T00:06:04;100511.72;;;7.51;79.79
74905;BME280;63465;50.862;6.220;2023-02-02T00:08:31;100510.13;;;7.44;80.05
74905;BME280;63465;50.862;6.220;2023-02-02T00:10:59;100501.09;;;7.54;79.47
74905;BME280;63465;50.862;6.220;2023-02-02T00:13:26;100502.94;;;7.50;79.24
74905;BME280;63465;50.862;6.220;2023-02-02T00:15:53;100508.22;;;7.50;79.32
74905;BME280;63465;50.862;6.220;2023-02-02T00:18:19;100510.00;;;7.48;79.28
74905;BME280;63465;50.862;6.220;2023-02-02T00:20:46;100504.63;;;7.53;79.31
74905;BME280;63465;50.862;6.220;2023-02-02T00:23:14;100505.53;;;7.52;79.45
74905;BME280;63465;50.862;6.220;2023-02-02T00:25:41;100502.78;;;7.57;79.08
74905;BME280;63465;50.862;6.220;2023-02-02T00:28:09;100513.31;;;7.58;79.07
74905;BME280;63465;50.862;6.220;2023-02-02T00:30:36;100501.25;;;7.46;79.49
74905;BME280;63465;50.862;6.220;2023-02-02T00:33:04;100506.22;;;7.60;79.19
74905;BME280;63465;50.862;6.220;2023-02-02T00:35:30;100499.25;;;7.56;79.35
74905;BME280;63465;50.862;6.220;2023-02-02T00:37:57;100505.50;;;7.54;79.74
74905;BME280;63465;50.862;6.220;2023-02-02T00:40:24;100504.47;;;7.59;79.69
74905;BME280;63465;50.862;6.220;2023-02-02T00:42:51;100488.81;;;7.52;79.76
74905;BME280;63465;50.862;6.220;2023-02-02T00:45:19;100492.38;;;7.50;80.09
74905;BME280;63465;50.862;6.220;2023-02-02T00:47:46;100481.78;;;7.52;79.93
74905;BME280;63465;50.862;6.220;2023-02-02T00:50:16;100488.03;;;7.48;80.24
74905;BME280;63465;50.862;6.220;2023-02-02T00:52:44;100492.19;;;7.58;79.94
74905;BME280;63465;50.862;6.220;2023-02-02T00:55:12;100482.66;;;7.51;80.09
74905;BME280;63465;50.862;6.220;2023-02-02T00:57:39;100487.16;;;7.47;80.42
74905;BME280;63465;50.862;6.220;2023-02-02T01:00:12;100488.06;;;7.46;80.25
74905;BME280;63465;50.862;6.220;2023-02-02T01:02:41;100494.88;;;7.57;79.85
74905;BME280;63465;50.862;6.220;2023-02-02T01:05:09;100489.69;;;7.52;79.72
74905;BME280;63465;50.862;6.220;2023-02-02T01:07:37;100491.56;;;7.47;79.44
74905;BME280;63465;50.862;6.220;2023-02-02T01:10:05;100488.84;;;7.50;79.71
74905;BME280;63465;50.862;6.220;2023-02-02T01:12:33;100489.56;;;7.58;79.22
74905;BME280;63465;50.862;6.220;2023-02-02T01:14:59;100495.06;;;7.49;79.52
74905;BME280;63465;50.862;6.220;2023-02-02T01:17:26;100497.56;;;7.55;79.63
74905;BME280;63465;50.862;6.220;2023-02-02T01:19:55;100498.41;;;7.56;79.44
74905;BME280;63465;50.862;6.220;2023-02-02T01:22:21;100488.06;;;7.46;79.65
74905;BME280;63465;50.862;6.220;2023-02-02T01:24:48;100494.06;;;7.53;79.76
74905;BME280;63465;50.862;6.220;2023-02-02T01:27:15;100495.09;;;7.47;80.07
74905;BME280;63465;50.862;6.220;2023-02-02T01:29:42;100492.56;;;7.43;80.02
74905;BME280;63465;50.862;6.220;2023-02-02T01:32:09;100498.47;;;7.53;79.94
74905;BME280;63465;50.862;6.220;2023-02-02T01:34:36;100495.31;;;7.38;80.04
74905;BME280;63465;50.862;6.220;2023-02-02T01:37:07;100507.38;;;7.48;80.06
74905;BME280;63465;50.862;6.220;2023-02-02T01:39:34;100505.47;;;7.55;79.52
74905;BME280;63465;50.862;6.220;2023-02-02T01:42:02;100503.91;;;7.46;80.20
74905;BME280;63465;50.862;6.220;2023-02-02T01:45:05;100511.91;;;7.43;80.28
74905;BME280;63465;50.862;6.220;2023-02-02T01:47:35;100494.38;;;7.39;80.15
74905;BME280;63465;50.862;6.220;2023-02-02T01:50:05;100516.06;;;7.54;79.60
74905;BME280;63465;50.862;6.220;2023-02-02T01:52:34;100518.84;;;7.47;79.45
74905;BME280;63465;50.862;6.220;2023-02-02T01:55:05;100520.38;;;7.56;79.50
74905;BME280;63465;50.862;6.220;2023-02-02T01:57:36;100520.53;;;7.50;79.55
74905;BME280;63465;50.862;6.220;2023-02-02T02:00:07;100519.66;;;7.51;79.43
74905;BME280;63465;50.862;6.220;2023-02-02T02:02:45;100513.44;;;7.54;79.41
74905;BME280;63465;50.862;6.220;2023-02-02T02:05:20;100523.19;;;7.50;79.47
74905;BME280;63465;50.862;6.220;2023-02-02T02:07:52;100516.03;;;7.55;79.43
74905;BME280;63465;50.862;6.220;2023-02-02T02:10:21;100522.78;;;7.67;79.04
74905;BME280;63465;50.862;6.220;2023-02-02T02:12:49;100522.09;;;7.59;79.18
74905;BME280;63465;50.862;6.220;2023-02-02T02:15:16;100515.19;;;7.53;79.38
74905;BME280;63465;50.862;6.220;2023-02-02T02:18:08;100508.88;;;7.60;79.20
74905;BME280;63465;50.862;6.220;2023-02-02T02:21:22;100513.50;;;7.50;79.32
74905;BME280;63465;50.862;6.220;2023-02-02T02:24:49;100509.09;;;7.51;79.21
74905;BME280;63465;50.862;6.220;2023-02-02T02:28:05;100501.66;;;7.67;78.94
74905;BME280;63465;50.862;6.220;2023-02-02T02:31:06;100504.47;;;7.59;79.35
74905;BME280;63465;50.862;6.220;2023-02-02T02:33:46;100502.22;;;7.42;79.95
74905;BME280;63465;50.862;6.220;2023-02-02T02:36:21;100507.38;;;7.48;79.90
74905;BME280;63465;50.862;6.220;2023-02-02T02:39:00;100503.88;;;7.48;79.98
74905;BME280;63465;50.862;6.220;2023-02-02T02:41:33;100510.78;;;7.54;79.82
74905;BME280;63465;50.862;6.220;2023-02-02T02:44:03;100514.19;;;7.59;79.75
74905;BME280;63465;50.862;6.220;2023-02-02T02:46:32;100503.84;;;7.49;79.77
74905;BME280;63465;50.862;6.220;2023-02-02T02:49:02;100506.63;;;7.43;80.10
74905;BME280;63465;50.862;6.220;2023-02-02T02:51:41;100510.00;;;7.48;80.23
74905;BME280;63465;50.862;6.220;2023-02-02T02:54:12;100502.19;;;7.44;80.30
74905;BME280;63465;50.862;6.220;2023-02-02T02:56:54;100504.13;;;7.37;80.54
74905;BME280;63465;50.862;6.220;2023-02-02T02:59:33;100516.97;;;7.53;80.25
74905;BME280;63465;50.862;6.220;2023-02-02T03:02:11;100510.22;;;7.39;80.69
74905;BME280;63465;50.862;6.220;2023-02-02T03:04:50;100522.72;;;7.32;80.60
74905;BME280;63465;50.862;6.220;2023-02-02T03:07:25;100528.63;;;7.42;80.39
74905;BME280;63465;50.862;6.220;2023-02-02T03:09:57;100531.31;;;7.41;80.10
74905;BME280;63465;50.862;6.220;2023-02-02T03:12:25;100516.28;;;7.44;80.06
74905;BME280;63465;50.862;6.220;2023-02-02T03:14:52;100528.47;;;7.50;79.67
74905;BME280;63465;50.862;6.220;2023-02-02T03:17:19;100534.72;;;7.46;80.02
74905;BME280;63465;50.862;6.220;2023-02-02T03:19:47;100521.34;;;7.54;79.43
74905;BME280;63465;50.862;6.220;2023-02-02T03:22:13;100526.47;;;7.61;79.38
74905;BME280;63465;50.862;6.220;2023-02-02T03:24:40;100533.41;;;7.64;79.31
74905;BME280;63465;50.862;6.220;2023-02-02T03:27:07;100527.88;;;7.75;79.10
74905;BME280;63465;50.862;6.220;2023-02-02T03:29:34;100532.84;;;7.51;79.75
74905;BME280;63465;50.862;6.220;2023-02-02T03:32:01;100543.38;;;7.53;79.79
74905;BME280;63465;50.862;6.220;2023-02-02T03:34:27;100529.22;;;7.57;79.93
74905;BME280;63465;50.862;6.220;2023-02-02T03:36:55;100527.31;;;7.62;79.18
74905;BME280;63465;50.862;6.220;2023-02-02T03:39:22;100531.03;;;7.53;79.75
74905;BME280;63465;50.862;6.220;2023-02-02T03:41:49;100530.78;;;7.64;79.82
74905;BME280;63465;50.862;6.220;2023-02-02T03:44:16;100534.66;;;7.49;80.28
74905;BME280;63465;50.862;6.220;2023-02-02T03:46:42;100533.78;;;7.48;80.37
74905;BME280;63465;50.862;6.220;2023-02-02T03:49:09;100548.03;;;7.41;80.22
74905;BME280;63465;50.862;6.220;2023-02-02T03:51:36;100533.53;;;7.59;79.90
74905;BME280;63465;50.862;6.220;2023-02-02T03:54:04;100546.03;;;7.53;79.66
74905;BME280;63465;50.862;6.220;2023-02-02T03:56:30;100539.47;;;7.69;79.22
74905;BME280;63465;50.862;6.220;2023-02-02T03:58:57;100543.34;;;7.54;79.34
74905;BME280;63465;50.862;6.220;2023-02-02T04:01:28;100549.13;;;7.70;79.21
74905;BME280;63465;50.862;6.220;2023-02-02T04:03:55;100541.19;;;7.70;78.79
74905;BME280;63465;50.862;6.220;2023-02-02T04:06:22;100534.25;;;7.67;78.78
74905;BME280;63465;50.862;6.220;2023-02-02T04:08:50;100540.22;;;7.74;78.55
74905;BME280;63465;50.862;6.220;2023-02-02T04:11:18;100541.44;;;7.59;79.22
74905;BME280;63465;50.862;6.220;2023-02-02T04:13:45;100558.91;;;7.66;79.01
74905;BME280;63465;50.862;6.220;2023-02-02T04:16:12;100554.47;;;7.67;78.95
74905;BME280;63465;50.862;6.220;2023-02-02T04:18:39;100555.03;;;7.81;78.39
74905;BME280;63465;50.862;6.220;2023-02-02T04:21:06;100550.09;;;7.67;78.69
74905;BME280;63465;50.862;6.220;2023-02-02T04:23:33;100553.09;;;7.52;79.18
74905;BME280;63465;50.862;6.220;2023-02-02T04:26:00;100549.13;;;7.70;78.87
74905;BME280;63465;50.862;6.220;2023-02-02T04:28:29;100548.13;;;7.76;78.84
74905;BME280;63465;50.862;6.220;2023-02-02T04:30:56;100537.13;;;7.57;79.31
74905;BME280;63465;50.862;6.220;2023-02-02T04:33:24;100548.63;;;7.54;79.57
74905;BME280;63465;50.862;6.220;2023-02-02T04:35:51;100550.34;;;7.57;79.56
74905;BME280;63465;50.862;6.220;2023-02-02T04:38:18;100564.47;;;7.54;79.58
74905;BME280;63465;50.862;6.220;2023-02-02T04:40:46;100565.22;;;7.59;79.91
74905;BME280;63465;50.862;6.220;2023-02-02T04:43:14;100559.88;;;7.62;79.74
74905;BME280;63465;50.862;6.220;2023-02-02T04:45:42;100563.66;;;7.52;80.26
74905;BME280;63465;50.862;6.220;2023-02-02T04:48:09;100568.13;;;7.47;80.53
74905;BME280;63465;50.862;6.220;2023-02-02T04:50:36;100574.97;;;7.57;80.38
74905;BME280;63465;50.862;6.220;2023-02-02T04:53:03;100576.84;;;7.52;80.71
74905;BME280;63465;50.862;6.220;2023-02-02T04:55:30;100583.00;;;7.53;80.52
74905;BME280;63465;50.862;6.220;2023-02-02T04:57:56;100583.75;;;7.58;80.22
74905;BME280;63465;50.862;6.220;2023-02-02T05:00:23;100574.22;;;7.52;80.06
74905;BME280;63465;50.862;6.220;2023-02-02T05:02:51;100574.06;;;7.58;80.09
74905;BME280;63465;50.862;6.220;2023-02-02T05:05:18;100576.66;;;7.61;79.93
74905;BME280;63465;50.862;6.220;2023-02-02T05:07:45;100578.59;;;7.52;80.49
74905;BME280;63465;50.862;6.220;2023-02-02T05:10:12;100572.41;;;7.54;80.60
74905;BME280;63465;50.862;6.220;2023-02-02T05:12:39;100577.94;;;7.42;80.68
74905;BME280;63465;50.862;6.220;2023-02-02T05:15:06;100581.28;;;7.50;80.43
74905;BME280;63465;50.862;6.220;2023-02-02T05:17:33;100597.00;;;7.56;79.99
74905;BME280;63465;50.862;6.220;2023-02-02T05:20:01;100581.19;;;7.55;80.19
74905;BME280;63465;50.862;6.220;2023-02-02T05:22:28;100584.75;;;7.54;80.37
74905;BME280;63465;50.862;6.220;2023-02-02T05:24:54;100588.28;;;7.53;80.30
74905;BME280;63465;50.862;6.220;2023-02-02T05:27:21;100590.69;;;7.63;80.55
74905;BME280;63465;50.862;6.220;2023-02-02T05:29:48;100581.31;;;7.48;80.95
74905;BME280;63465;50.862;6.220;2023-02-02T05:32:14;100575.50;;;7.32;81.61
74905;BME280;63465;50.862;6.220;2023-02-02T05:34:41;100574.09;;;7.57;81.08
74905;BME280;63465;50.862;6.220;2023-02-02T05:37:09;100587.03;;;7.28;81.82
74905;BME280;63465;50.862;6.220;2023-02-02T05:39:36;100583.88;;;7.52;81.42
74905;BME280;63465;50.862;6.220;2023-02-02T05:42:02;100582.06;;;7.55;81.39
74905;BME280;63465;50.862;6.220;2023-02-02T05:44:29;100579.53;;;7.50;81.20
74905;BME280;63465;50.862;6.220;2023-02-02T05:46:56;100569.16;;;7.41;81.45
74905;BME280;63465;50.862;6.220;2023-02-02T05:49:22;100560.00;;;7.56;81.05
74905;BME280;63465;50.862;6.220;2023-02-02T05:51:51;100567.94;;;7.56;80.95
74905;BME280;63465;50.862;6.220;2023-02-02T05:54:20;100564.69;;;7.45;81.34
74905;BME280;63465;50.862;6.220;2023-02-02T05:56:48;100577.06;;;7.43;81.47
74905;BME280;63465;50.862;6.220;2023-02-02T05:59:16;100581.59;;;7.36;81.95
74905;BME280;63465;50.862;6.220;2023-02-02T06:01:43;100587.69;;;7.40;81.75
74905;BME280;63465;50.862;6.220;2023-02-02T06:04:09;100577.94;;;7.42;81.73
74905;BME280;63465;50.862;6.220;2023-02-02T06:06:36;100581.72;;;7.30;82.16
74905;BME280;63465;50.862;6.220;2023-02-02T06:09:04;100577.97;;;7.40;82.02
74905;BME280;63465;50.862;6.220;2023-02-02T06:11:33;100572.94;;;7.29;82.44
74905;BME280;63465;50.862;6.220;2023-02-02T06:14:00;100583.41;;;7.34;82.45
74905;BME280;63465;50.862;6.220;2023-02-02T06:16:26;100583.72;;;7.19;83.12
74905;BME280;63465;50.862;6.220;2023-02-02T06:18:53;100595.03;;;7.24;83.29
74905;BME280;63465;50.862;6.220;2023-02-02T06:21:20;100618.09;;;7.16;83.92
74905;BME280;63465;50.862;6.220;2023-02-02T06:23:47;100608.41;;;7.16;83.83
74905;BME280;63465;50.862;6.220;2023-02-02T06:26:15;100610.06;;;7.22;83.63
74905;BME280;63465;50.862;6.220;2023-02-02T06:28:48;100612.56;;;7.28;83.71
74905;BME280;63465;50.862;6.220;2023-02-02T06:31:14;100606.69;;;7.13;84.32
74905;BME280;63465;50.862;6.220;2023-02-02T06:33:43;100613.53;;;7.24;84.27
74905;BME280;63465;50.862;6.220;2023-02-02T06:36:10;100605.84;;;7.11;84.55
74905;BME280;63465;50.862;6.220;2023-02-02T06:38:37;100605.56;;;7.25;83.87
74905;BME280;63465;50.862;6.220;2023-02-02T06:41:04;100604.03;;;7.13;84.13
74905;BME280;63465;50.862;6.220;2023-02-02T06:43:31;100598.00;;;7.08;84.13
74905;BME280;63465;50.862;6.220;2023-02-02T06:45:59;100609.25;;;7.17;84.08
74905;BME280;63465;50.862;6.220;2023-02-02T06:48:26;100602.09;;;7.23;83.75
74905;BME280;63465;50.862;6.220;2023-02-02T06:50:53;100620.81;;;7.12;84.09
74905;BME280;63465;50.862;6.220;2023-02-02T06:53:22;100609.28;;;7.15;83.94
74905;BME280;63465;50.862;6.220;2023-02-02T06:55:53;100628.84;;;7.06;84.18
74905;BME280;63465;50.862;6.220;2023-02-02T06:58:19;100606.50;;;7.24;83.57
74905;BME280;63465;50.862;6.220;2023-02-02T07:00:46;100610.03;;;7.23;83.70
74905;BME280;63465;50.862;6.220;2023-02-02T07:03:15;100612.59;;;7.26;83.93
74905;BME280;63465;50.862;6.220;2023-02-02T07:05:42;100601.34;;;7.17;84.14
74905;BME280;63465;50.862;6.220;2023-02-02T07:08:08;100625.16;;;7.13;84.24
74905;BME280;63465;50.862;6.220;2023-02-02T07:10:35;100611.78;;;7.23;84.14
74905;BME280;63465;50.862;6.220;2023-02-02T07:13:02;100604.72;;;7.25;83.92
74905;BME280;63465;50.862;6.220;2023-02-02T07:15:29;100607.53;;;7.16;84.07
74905;BME280;63465;50.862;6.220;2023-02-02T07:17:56;100620.66;;;7.20;83.55
74905;BME280;63465;50.862;6.220;2023-02-02T07:20:24;100632.97;;;7.18;83.54
74905;BME280;63465;50.862;6.220;2023-02-02T07:22:51;100618.91;;;7.19;83.71
74905;BME280;63465;50.862;6.220;2023-02-02T07:25:17;100631.38;;;7.12;83.77
74905;BME280;63465;50.862;6.220;2023-02-02T07:27:44;100621.50;;;7.21;83.59
74905;BME280;63465;50.862;6.220;2023-02-02T07:30:12;100633.97;;;7.14;83.84
74905;BME280;63465;50.862;6.220;2023-02-02T07:32:45;100620.44;;;7.31;83.45
74905;BME280;63465;50.862;6.220;2023-02-02T07:35:11;100631.38;;;7.12;84.05
74905;BME280;63465;50.862;6.220;2023-02-02T07:37:39;100639.94;;;7.22;83.75
74905;BME280;63465;50.862;6.220;2023-02-02T07:40:08;100629.25;;;7.30;83.94
74905;BME280;63465;50.862;6.220;2023-02-02T07:42:35;100639.94;;;7.24;83.80
74905;BME280;63465;50.862;6.220;2023-02-02T07:45:02;100627.69;;;7.20;83.72
74905;BME280;63465;50.862;6.220;2023-02-02T07:47:29;100629.16;;;7.33;83.56
74905;BME280;63465;50.862;6.220;2023-02-02T07:49:56;100625.56;;;7.37;83.40
74905;BME280;63465;50.862;6.220;2023-02-02T07:52:23;100624.66;;;7.40;83.16
74905;BME280;63465;50.862;6.220;2023-02-02T07:54:51;100628.09;;;7.43;83.18
74905;BME280;63465;50.862;6.220;2023-02-02T07:57:17;100631.47;;;7.50;82.92
74905;BME280;63465;50.862;6.220;2023-02-02T07:59:44;100629.97;;;7.38;83.14
74905;BME280;63465;50.862;6.220;2023-02-02T08:02:11;100639.59;;;7.39;83.21
74905;BME280;63465;50.862;6.220;2023-02-02T08:04:38;100636.13;;;7.37;83.42
74905;BME280;63465;50.862;6.220;2023-02-02T08:07:04;100641.16;;;7.49;82.79
74905;BME280;63465;50.862;6.220;2023-02-02T08:09:31;100635.34;;;7.34;83.28
74905;BME280;63465;50.862;6.220;2023-02-02T08:11:59;100624.94;;;7.26;83.70
74905;BME280;63465;50.862;6.220;2023-02-02T08:14:27;100642.03;;;7.50;83.20
74905;BME280;63465;50.862;6.220;2023-02-02T08:16:54;100642.97;;;7.47;82.99
74905;BME280;63465;50.862;6.220;2023-02-02T08:19:20;100641.28;;;7.43;83.09
74905;BME280;63465;50.862;6.220;2023-02-02T08:21:47;100651.97;;;7.37;83.65
74905;BME280;63465;50.862;6.220;2023-02-02T08:24:14;100658.03;;;7.42;83.50
74905;BME280;63465;50.862;6.220;2023-02-02T08:26:40;100664.19;;;7.43;83.36
74905;BME280;63465;50.862;6.220;2023-02-02T08:29:08;100679.97;;;7.46;83.20
74905;BME280;63465;50.862;6.220;2023-02-02T08:31:38;100679.03;;;7.48;83.04
74905;BME280;63465;50.862;6.220;2023-02-02T08:34:06;100679.81;;;7.54;83.23
74905;BME280;63465;50.862;6.220;2023-02-02T08:36:33;100678.91;;;7.55;83.10
74905;BME280;63465;50.862;6.220;2023-02-02T08:39:01;100691.63;;;7.36;83.39
74905;BME280;63465;50.862;6.220;2023-02-02T08:41:28;100694.13;;;7.42;83.32
74905;BME280;63465;50.862;6.220;2023-02-02T08:43:54;100687.16;;;7.38;83.15
74905;BME280;63465;50.862;6.220;2023-02-02T08:46:23;100692.16;;;7.52;83.04
74905;BME280;63465;50.862;6.220;2023-02-02T08:48:49;100708.13;;;7.45;82.95
74905;BME280;63465;50.862;6.220;2023-02-02T08:51:18;100706.44;;;7.43;83.17
74905;BME280;63465;50.862;6.220;2023-02-02T08:53:45;100699.19;;;7.53;83.10
74905;BME280;63465;50.862;6.220;2023-02-02T08:56:13;100704.56;;;7.48;83.52
74905;BME280;63465;50.862;6.220;2023-02-02T08:58:44;100711.47;;;7.55;83.65
74905;BME280;63465;50.862;6.220;2023-02-02T09:01:13;100706.47;;;7.41;84.12
74905;BME280;63465;50.862;6.220;2023-02-02T09:03:42;100698.38;;;7.50;84.07
74905;BME280;63465;50.862;6.220;2023-02-02T09:06:11;100703.81;;;7.43;83.98
74905;BME280;63465;50.862;6.220;2023-02-02T09:08:38;100696.50;;;7.56;83.40
74905;BME280;63465;50.862;6.220;2023-02-02T09:11:06;100717.78;;;7.48;83.52
74905;BME280;63465;50.862;6.220;2023-02-02T09:13:33;100716.84;;;7.52;83.60
74905;BME280;63465;50.862;6.220;2023-02-02T09:16:00;100714.97;;;7.56;83.34
74905;BME280;63465;50.862;6.220;2023-02-02T09:18:27;100721.75;;;7.71;82.54
74905;BME280;63465;50.862;6.220;2023-02-02T09:20:58;100741.25;;;7.63;82.86
74905;BME280;63465;50.862;6.220;2023-02-02T09:23:27;100724.56;;;7.61;83.06
74905;BME280;63465;50.862;6.220;2023-02-02T09:25:54;100731.72;;;7.55;83.16
74905;BME280;63465;50.862;6.220;2023-02-02T09:28:21;100735.19;;;7.58;82.80
74905;BME280;63465;50.862;6.220;2023-02-02T09:30:48;100739.41;;;7.67;82.55
74905;BME280;63465;50.862;6.220;2023-02-02T09:33:15;100755.00;;;7.79;82.12
74905;BME280;63465;50.862;6.220;2023-02-02T09:35:42;100769.94;;;7.82;82.06
74905;BME280;63465;50.862;6.220;2023-02-02T09:38:10;100770.97;;;7.73;82.31
74905;BME280;63465;50.862;6.220;2023-02-02T09:40:39;100778.06;;;7.71;82.53
74905;BME280;63465;50.862;6.220;2023-02-02T09:43:15;100777.44;;;7.60;82.82
74905;BME280;63465;50.862;6.220;2023-02-02T09:45:54;100777.09;;;7.77;82.88
74905;BME280;63465;50.862;6.220;2023-02-02T09:48:27;100780.19;;;7.54;83.72
74905;BME280;63465;50.862;6.220;2023-02-02T09:51:02;100772.88;;;7.66;83.59
74905;BME280;63465;50.862;6.220;2023-02-02T09:53:41;100778.19;;;7.65;83.71
74905;BME280;63465;50.862;6.220;2023-02-02T09:56:16;100780.03;;;7.61;83.79
74905;BME280;63465;50.862;6.220;2023-02-02T09:58:48;100783.34;;;7.73;83.46
74905;BME280;63465;50.862;6.220;2023-02-02T10:01:21;100793.00;;;7.74;83.31
74905;BME280;63465;50.862;6.220;2023-02-02T10:03:57;100801.25;;;7.57;83.51
74905;BME280;63465;50.862;6.220;2023-02-02T10:06:31;100814.81;;;7.83;82.92
74905;BME280;63465;50.862;6.220;2023-02-02T10:09:07;100819.31;;;7.80;83.04
74905;BME280;63465;50.862;6.220;2023-02-02T10:11:44;100814.38;;;7.61;83.43
74905;BME280;63465;50.862;6.220;2023-02-02T10:14:17;100822.81;;;7.80;82.88
74905;BME280;63465;50.862;6.220;2023-02-02T10:16:48;100814.91;;;7.79;83.37
74905;BME280;63465;50.862;6.220;2023-02-02T10:19:17;100828.94;;;7.82;83.06
74905;BME280;63465;50.862;6.220;2023-02-02T10:21:48;100820.94;;;7.85;82.68
74905;BME280;63465;50.862;6.220;2023-02-02T10:24:20;100849.28;;;7.77;83.01
74905;BME280;63465;50.862;6.220;2023-02-02T10:26:49;100841.69;;;8.07;82.60
74905;BME280;63465;50.862;6.220;2023-02-02T10:29:28;100848.94;;;7.96;82.30
74905;BME280;63465;50.862;6.220;2023-02-02T10:32:05;100838.16;;;8.07;81.59
74905;BME280;63465;50.862;6.220;2023-02-02T10:34:40;100848.06;;;7.95;81.61
74905;BME280;63465;50.862;6.220;2023-02-02T10:37:20;100839.88;;;8.09;81.42
74905;BME280;63465;50.862;6.220;2023-02-02T10:40:16;100839.44;;;8.29;80.32
74905;BME280;63465;50.862;6.220;2023-02-02T10:42:55;100838.31;;;7.99;81.56
74905;BME280;63465;50.862;6.220;2023-02-02T10:45:49;100832.75;;;8.11;81.82
74905;BME280;63465;50.862;6.220;2023-02-02T10:48:19;100844.16;;;8.15;81.60
74905;BME280;63465;50.862;6.220;2023-02-02T10:50:48;100847.03;;;8.04;82.13
74905;BME280;63465;50.862;6.220;2023-02-02T10:53:17;100847.84;;;8.06;81.44
74905;BME280;63465;50.862;6.220;2023-02-02T10:55:49;100846.63;;;8.24;81.52
74905;BME280;63465;50.862;6.220;2023-02-02T10:58:23;100840.81;;;8.05;81.98
74905;BME280;63465;50.862;6.220;2023-02-02T11:00:53;100838.63;;;8.27;81.52
74905;BME280;63465;50.862;6.220;2023-02-02T11:03:22;100838.00;;;8.14;81.38
74905;BME280;63465;50.862;6.220;2023-02-02T11:05:51;100839.44;;;8.29;80.96
74905;BME280;63465;50.862;6.220;2023-02-02T11:08:38;100837.72;;;8.27;80.70
74905;BME280;63465;50.862;6.220;2023-02-02T11:11:11;100833.34;;;8.27;80.91
74905;BME280;63465;50.862;6.220;2023-02-02T11:13:47;100832.56;;;8.20;80.51
74905;BME280;63465;50.862;6.220;2023-02-02T11:16:19;100843.97;;;8.24;81.13
74905;BME280;63465;50.862;6.220;2023-02-02T11:18:46;100835.25;;;8.19;80.58
74905;BME280;63465;50.862;6.220;2023-02-02T11:21:18;100838.63;;;8.27;80.30
74905;BME280;63465;50.862;6.220;2023-02-02T11:23:53;100834.25;;;8.67;79.58
74905;BME280;63465;50.862;6.220;2023-02-02T11:26:23;100837.00;;;8.62;78.52
74905;BME280;63465;50.862;6.220;2023-02-02T11:28:51;100847.59;;;8.62;78.93
74905;BME280;63465;50.862;6.220;2023-02-02T11:31:32;100845.16;;;8.51;78.22
74905;BME280;63465;50.862;6.220;2023-02-02T11:34:08;100847.56;;;8.64;77.93
74905;BME280;63465;50.862;6.220;2023-02-02T11:36:36;100836.63;;;8.79;77.86
74905;BME280;63465;50.862;6.220;2023-02-02T11:39:14;100844.72;;;8.73;77.67
74905;BME280;63465;50.862;6.220;2023-02-02T11:41:43;100832.31;;;8.75;78.00
74905;BME280;63465;50.862;6.220;2023-02-02T11:44:18;100830.56;;;8.74;78.02
74905;BME280;63465;50.862;6.220;2023-02-02T11:46:46;100826.25;;;8.70;77.63
74905;BME280;63465;50.862;6.220;2023-02-02T11:49:15;100828.84;;;8.73;77.97
74905;BME280;63465;50.862;6.220;2023-02-02T11:51:55;100829.88;;;8.66;77.62
74905;BME280;63465;50.862;6.220;2023-02-02T11:54:25;100834.41;;;8.61;77.93
74905;BME280;63465;50.862;6.220;2023-02-02T11:56:57;100832.09;;;8.42;77.71
74905;BME280;63465;50.862;6.220;2023-02-02T11:59:30;100818.63;;;8.54;77.46
74905;BME280;63465;50.862;6.220;2023-02-02T12:02:21;100813.91;;;8.69;77.50
74905;BME280;63465;50.862;6.220;2023-02-02T12:04:50;100795.28;;;8.73;77.41
74905;BME280;63465;50.862;6.220;2023-02-02T12:07:22;100807.84;;;8.65;77.16
74905;BME280;63465;50.862;6.220;2023-02-02T12:09:49;100794.28;;;8.79;76.86
74905;BME280;63465;50.862;6.220;2023-02-02T12:12:27;100797.91;;;8.75;76.16
74905;BME280;63465;50.862;6.220;2023-02-02T12:15:02;100797.38;;;8.97;75.81
74905;BME280;63465;50.862;6.220;2023-02-02T12:17:36;100806.53;;;9.19;75.51
74905;BME280;63465;50.862;6.220;2023-02-02T12:20:14;100790.06;;;9.41;74.68
74905;BME280;63465;50.862;6.220;2023-02-02T12:23:06;100792.63;;;10.38;71.90
74905;BME280;63465;50.862;6.220;2023-02-02T12:25:49;100794.03;;;9.89;71.97
74905;BME280;63465;50.862;6.220;2023-02-02T12:28:29;100788.16;;;9.46;73.90
74905;BME280;63465;50.862;6.220;2023-02-02T12:31:06;100794.78;;;9.62;73.65
74905;BME280;63465;50.862;6.220;2023-02-02T12:33:43;100794.31;;;9.48;73.40
74905;BME280;63465;50.862;6.220;2023-02-02T12:36:27;100778.16;;;9.57;73.40
74905;BME280;63465;50.862;6.220;2023-02-02T12:39:22;100781.56;;;9.61;73.32
74905;BME280;63465;50.862;6.220;2023-02-02T12:42:06;100777.75;;;9.71;72.94
74905;BME280;63465;50.862;6.220;2023-02-02T12:44:44;100782.31;;;9.66;73.24
74905;BME280;63465;50.862;6.220;2023-02-02T12:47:18;100791.97;;;9.69;73.26
74905;BME280;63465;50.862;6.220;2023-02-02T12:50:02;100784.44;;;9.53;73.53
74905;BME280;63465;50.862;6.220;2023-02-02T12:52:47;100786.47;;;9.43;73.63
74905;BME280;63465;50.862;6.220;2023-02-02T12:55:22;100788.31;;;9.40;73.77
74905;BME280;63465;50.862;6.220;2023-02-02T12:58:00;100777.88;;;9.34;73.91
74905;BME280;63465;50.862;6.220;2023-02-02T13:01:14;100774.88;;;9.48;73.65
74905;BME280;63465;50.862;6.220;2023-02-02T13:04:04;100771.88;;;9.60;73.29
74905;BME280;63465;50.862;6.220;2023-02-02T13:06:46;100775.38;;;9.62;72.96
74905;BME280;63465;50.862;6.220;2023-02-02T13:09:25;100779.19;;;9.83;72.55
74905;BME280;63465;50.862;6.220;2023-02-02T13:11:57;100774.69;;;9.54;72.59
74905;BME280;63465;50.862;6.220;2023-02-02T13:14:28;100774.22;;;9.39;73.19
74905;BME280;63465;50.862;6.220;2023-02-02T13:17:01;100770.75;;;9.69;72.75
74905;BME280;63465;50.862;6.220;2023-02-02T13:19:34;100774.53;;;9.91;71.94